createdAt,value
2022-09-28T00:00:00.356Z,92
2022-09-28T00:01:00.495Z,92.1
2022-09-28T00:02:00.793Z,92.3
2022-09-28T00:03:00.928Z,92.3
2022-09-28T00:04:00.952Z,92.3
2022-09-28T00:05:01.107Z,92.2
2022-09-28T00:06:01.261Z,92.3
2022-09-28T00:07:00.386Z,92.3
2022-09-28T00:08:00.568Z,92.4
2022-09-28T00:09:00.689Z,92.4
2022-09-28T00:10:00.841Z,92.4
2022-09-28T00:11:00.991Z,92.4
2022-09-28T00:12:01.136Z,92.4
2022-09-28T00:13:00.304Z,92.3
2022-09-28T00:14:00.441Z,92.3
2022-09-28T00:15:00.584Z,92.3
2022-09-28T00:16:00.784Z,92.3
2022-09-28T00:17:00.899Z,92.3
2022-09-28T00:18:01.063Z,92.1
2022-09-28T00:19:01.183Z,92
2022-09-28T00:20:00.347Z,92
2022-09-28T00:21:00.496Z,92
2022-09-28T00:22:00.656Z,92
2022-09-28T00:23:00.817Z,91.9
2022-09-28T00:24:00.949Z,91.8
2022-09-28T00:25:01.103Z,91.8
2022-09-28T00:26:01.245Z,91.8
2022-09-28T00:27:00.394Z,91.7
2022-09-28T00:28:00.558Z,91.8
2022-09-28T00:29:00.711Z,91.9
2022-09-28T00:30:00.841Z,91.8
2022-09-28T00:31:00.986Z,91.8
2022-09-28T00:32:01.226Z,91.8
2022-09-28T00:33:00.282Z,91.8
2022-09-28T00:34:00.451Z,91.9
2022-09-28T00:35:00.591Z,91.8
2022-09-28T00:36:00.729Z,91.6
2022-09-28T00:37:00.891Z,91.6
2022-09-28T00:38:01.031Z,91.6
2022-09-28T00:39:01.194Z,91.4
2022-09-28T00:40:00.323Z,91.4
2022-09-28T00:41:00.537Z,91.5
2022-09-28T00:42:00.630Z,91.5
2022-09-28T00:43:00.790Z,91.5
2022-09-28T00:44:00.949Z,91.5
2022-09-28T00:45:01.084Z,91.5
2022-09-28T00:46:01.311Z,91.5
2022-09-28T00:47:00.371Z,91.4
2022-09-28T00:48:00.519Z,91.3
2022-09-28T00:49:00.693Z,91.3
2022-09-28T00:50:00.829Z,91.3
2022-09-28T00:51:00.981Z,91.1
2022-09-28T00:52:01.135Z,91
2022-09-28T00:53:00.270Z,91
2022-09-28T00:54:00.423Z,90.9
2022-09-28T00:55:00.553Z,90.9
2022-09-28T00:56:00.716Z,91
2022-09-28T00:57:00.852Z,90.9
2022-09-28T00:58:00.998Z,90.9
2022-09-28T00:59:01.165Z,90.8
2022-09-28T01:00:00.280Z,90.7
2022-09-28T01:01:00.544Z,90.7
2022-09-28T01:02:00.621Z,90.9
2022-09-28T01:03:00.723Z,91.1
2022-09-28T01:04:00.901Z,91.1
2022-09-28T01:05:01.018Z,91
2022-09-28T01:06:01.164Z,90.9
2022-09-28T01:07:00.308Z,90.7
2022-09-28T01:08:00.453Z,90.6
2022-09-28T01:09:00.621Z,90.8
2022-09-28T01:10:00.770Z,90.8
2022-09-28T01:11:00.908Z,90.5
2022-09-28T01:12:01.067Z,90.4
2022-09-28T01:13:01.221Z,90.6
2022-09-28T01:14:00.383Z,90.8
2022-09-28T01:15:00.530Z,90.8
2022-09-28T01:16:00.742Z,90.7
2022-09-28T01:17:00.810Z,90.6
2022-09-28T01:18:00.952Z,90.7
2022-09-28T01:19:01.115Z,90.8
2022-09-28T01:20:01.265Z,90.8
2022-09-28T01:21:00.389Z,90.8
2022-09-28T01:22:00.545Z,90.4
2022-09-28T01:23:00.699Z,90.1
2022-09-28T01:24:00.855Z,90.2
2022-09-28T01:25:01.034Z,90.3
2022-09-28T01:26:01.164Z,90
2022-09-28T01:27:00.315Z,89.9
2022-09-28T01:28:00.453Z,89.9
2022-09-28T01:29:00.596Z,89.9
2022-09-28T01:30:00.733Z,89.8
2022-09-28T01:31:00.884Z,89.8
2022-09-28T01:32:01.106Z,89.8
2022-09-28T01:33:01.192Z,89.9
2022-09-28T01:34:00.317Z,90.1
2022-09-28T01:35:00.466Z,90.3
2022-09-28T01:36:00.603Z,90.1
2022-09-28T01:37:00.748Z,89.9
2022-09-28T01:38:00.920Z,89.8
2022-09-28T01:39:01.041Z,89.8
2022-09-28T01:40:01.196Z,90.1
2022-09-28T01:41:00.384Z,90.3
2022-09-28T01:42:00.489Z,90.4
2022-09-28T01:43:00.678Z,90.6
2022-09-28T01:44:00.796Z,90.4
2022-09-28T01:45:00.939Z,90.4
2022-09-28T01:46:01.121Z,90.3
2022-09-28T01:47:01.236Z,90.4
2022-09-28T01:48:00.409Z,90.6
2022-09-28T01:49:00.535Z,90.8
2022-09-28T01:50:00.693Z,90.8
2022-09-28T01:51:00.833Z,90.7
2022-09-28T01:52:00.983Z,90.8
2022-09-28T01:53:01.160Z,90.8
2022-09-28T01:54:00.276Z,90.8
2022-09-28T01:55:00.433Z,90.8
2022-09-28T01:56:00.589Z,90.8
2022-09-28T01:57:00.743Z,90.9
2022-09-28T01:58:00.918Z,91
2022-09-28T01:59:01.055Z,91.1
2022-09-28T02:00:01.186Z,91.2
2022-09-28T02:01:00.380Z,91.1
2022-09-28T02:02:00.542Z,91.2
2022-09-28T02:03:00.660Z,91.2
2022-09-28T02:04:00.781Z,91
2022-09-28T02:05:00.921Z,91.1
2022-09-28T02:06:01.066Z,91.1
2022-09-28T02:07:01.226Z,91.3
2022-09-28T02:08:00.389Z,91.4
2022-09-28T02:09:00.516Z,91.5
2022-09-28T02:10:00.663Z,91.5
2022-09-28T02:11:00.811Z,91.5
2022-09-28T02:12:00.956Z,91.5
2022-09-28T02:13:01.132Z,91.6
2022-09-28T02:14:01.258Z,91.6
2022-09-28T02:15:00.401Z,91.7
2022-09-28T02:16:00.598Z,91.7
2022-09-28T02:17:00.688Z,91.8
2022-09-28T02:18:00.868Z,91.8
2022-09-28T02:19:00.988Z,91.8
2022-09-28T02:20:01.129Z,91.8
2022-09-28T02:21:00.281Z,91.9
2022-09-28T02:22:00.415Z,91.8
2022-09-28T02:23:00.589Z,91.7
2022-09-28T02:24:00.725Z,91.7
2022-09-28T02:25:00.878Z,91.7
2022-09-28T02:26:01.032Z,91.8
2022-09-28T02:27:01.167Z,91.8
2022-09-28T02:28:00.341Z,91.9
2022-09-28T02:29:00.457Z,91.9
2022-09-28T02:30:00.604Z,91.8
2022-09-28T02:31:00.747Z,91.9
2022-09-28T02:32:00.901Z,91.9
2022-09-28T02:33:01.066Z,91.9
2022-09-28T02:34:01.206Z,91.9
2022-09-28T02:35:00.345Z,91.7
2022-09-28T02:36:00.488Z,91.7
2022-09-28T02:37:00.634Z,91.6
2022-09-28T02:38:00.791Z,91.6
2022-09-28T02:39:00.958Z,91.6
2022-09-28T02:40:01.086Z,91.6
2022-09-28T02:41:01.338Z,91.7
2022-09-28T02:42:00.371Z,91.7
2022-09-28T02:43:00.518Z,91.8
2022-09-28T02:44:00.699Z,91.9
2022-09-28T02:45:00.852Z,92
2022-09-28T02:46:01.041Z,92.1
2022-09-28T02:47:01.122Z,92.1
2022-09-28T02:48:00.263Z,92.1
2022-09-28T02:49:17.301Z,92.1
2022-09-28T02:50:00.590Z,92.1
2022-09-28T02:51:00.744Z,92.1
2022-09-28T02:52:00.880Z,92
2022-09-28T02:53:01.022Z,91.9
2022-09-28T02:54:01.154Z,91.8
2022-09-28T02:55:00.332Z,91.8
2022-09-28T02:56:00.455Z,91.7
2022-09-28T02:57:00.594Z,91.8
2022-09-28T02:58:00.739Z,91.9
2022-09-28T02:59:00.894Z,91.9
2022-09-28T03:00:01.053Z,91.9
2022-09-28T03:01:01.239Z,91.9
2022-09-28T03:02:00.409Z,91.9
2022-09-28T03:03:00.470Z,91.8
2022-09-28T03:04:00.624Z,91.8
2022-09-28T03:05:00.782Z,91.8
2022-09-28T03:06:00.910Z,91.8
2022-09-28T03:07:01.067Z,91.8
2022-09-28T03:08:01.220Z,91.8
2022-09-28T03:09:00.361Z,91.8
2022-09-28T03:10:00.521Z,91.8
2022-09-28T03:11:00.660Z,91.8
2022-09-28T03:12:00.800Z,91.9
2022-09-28T03:13:00.948Z,91.9
2022-09-28T03:14:01.093Z,92
2022-09-28T03:15:01.262Z,92
2022-09-28T03:16:00.427Z,92.1
2022-09-28T03:17:00.528Z,92
2022-09-28T03:18:00.663Z,92.1
2022-09-28T03:19:00.819Z,92.1
2022-09-28T03:20:00.984Z,92.2
2022-09-28T03:21:01.125Z,92.1
2022-09-28T03:22:00.273Z,92.1
2022-09-28T03:23:23.362Z,92.1
2022-09-28T03:24:00.570Z,92.1
2022-09-28T03:25:00.714Z,92.1
2022-09-28T03:26:00.878Z,92.1
2022-09-28T03:27:01.054Z,92.1
2022-09-28T03:28:01.195Z,92.1
2022-09-28T03:29:00.320Z,92.2
2022-09-28T03:30:00.465Z,92.3
2022-09-28T03:31:00.619Z,92.3
2022-09-28T03:32:00.769Z,92.3
2022-09-28T03:33:00.909Z,92.3
2022-09-28T03:34:01.067Z,92.3
2022-09-28T03:35:01.179Z,92.3
2022-09-28T03:36:00.329Z,92.2
2022-09-28T03:37:00.482Z,92.2
2022-09-28T03:38:00.635Z,92.1
2022-09-28T03:39:00.774Z,92.1
2022-09-28T03:40:00.910Z,92.1
2022-09-28T03:41:01.138Z,92
2022-09-28T03:42:01.208Z,92
2022-09-28T03:43:00.376Z,91.9
2022-09-28T03:44:00.496Z,91.8
2022-09-28T03:45:00.650Z,91.8
2022-09-28T03:46:00.903Z,91.8
2022-09-28T03:47:00.952Z,91.8
2022-09-28T03:48:01.108Z,91.8
2022-09-28T03:49:01.243Z,91.7
2022-09-28T03:50:00.393Z,91.6
2022-09-28T03:51:00.533Z,91.6
2022-09-28T03:52:00.691Z,91.6
2022-09-28T03:53:00.852Z,91.6
2022-09-28T03:54:00.974Z,91.6
2022-09-28T03:55:01.129Z,91.8
2022-09-28T03:56:00.272Z,91.8
2022-09-28T03:57:00.407Z,91.8
2022-09-28T03:58:00.577Z,91.8
2022-09-28T03:59:00.723Z,91.7
2022-09-28T04:00:00.883Z,91.7
2022-09-28T04:01:01.090Z,91.7
2022-09-28T04:02:01.233Z,91.7
2022-09-28T04:03:00.301Z,91.8
2022-09-28T04:04:00.467Z,91.9
2022-09-28T04:05:00.615Z,91.9
2022-09-28T04:06:00.764Z,91.9
2022-09-28T04:07:00.899Z,91.9
2022-09-28T04:08:01.038Z,92
2022-09-28T04:09:01.190Z,92.1
2022-09-28T04:10:00.363Z,92.2
2022-09-28T04:11:00.494Z,92.2
2022-09-28T04:12:04.215Z,92.2
2022-09-28T04:13:00.773Z,92.3
2022-09-28T04:14:00.931Z,92.3
2022-09-28T04:15:01.081Z,92.3
2022-09-28T04:16:01.271Z,92.3
2022-09-28T04:17:00.358Z,92.3
2022-09-28T04:18:00.509Z,92.3
2022-09-28T04:19:00.675Z,92.4
2022-09-28T04:20:00.807Z,92.4
2022-09-28T04:21:00.961Z,92.4
2022-09-28T04:22:01.096Z,92.4
2022-09-28T04:23:01.242Z,92.4
2022-09-28T04:24:00.406Z,92.4
2022-09-28T04:25:00.543Z,92.4
2022-09-28T04:26:00.703Z,92.3
2022-09-28T04:27:00.859Z,92.2
2022-09-28T04:28:01.013Z,92.2
2022-09-28T04:29:06.178Z,92.2
2022-09-28T04:30:00.282Z,92.3
2022-09-28T04:31:00.441Z,92.2
2022-09-28T04:32:00.639Z,92.2
2022-09-28T04:33:00.734Z,92.2
2022-09-28T04:34:00.899Z,92.2
2022-09-28T04:35:01.033Z,92.1
2022-09-28T04:36:01.184Z,92.1
2022-09-28T04:37:00.328Z,92.1
2022-09-28T04:38:00.483Z,92.1
2022-09-28T04:39:00.640Z,92.1
2022-09-28T04:40:00.774Z,92.1
2022-09-28T04:41:01.015Z,92
2022-09-28T04:42:01.075Z,92
2022-09-28T04:43:01.205Z,91.9
2022-09-28T04:44:00.369Z,91.7
2022-09-28T04:45:00.531Z,91.7
2022-09-28T04:46:00.701Z,91.6
2022-09-28T04:47:05.012Z,91.5
2022-09-28T04:48:00.959Z,91.5
2022-09-28T04:49:01.117Z,91.4
2022-09-28T04:50:00.273Z,91.4
2022-09-28T04:51:00.407Z,91.4
2022-09-28T04:52:00.547Z,91.3
2022-09-28T04:53:00.690Z,91.3
2022-09-28T04:54:00.848Z,91.3
2022-09-28T04:55:01.025Z,91
2022-09-28T04:56:01.152Z,91
2022-09-28T04:57:00.298Z,90.9
2022-09-28T04:58:00.439Z,90.9
2022-09-28T04:59:00.602Z,90.9
2022-09-28T05:00:00.750Z,91
2022-09-28T05:01:00.980Z,91.1
2022-09-28T05:02:01.147Z,91.2
2022-09-28T05:03:01.198Z,91.3
2022-09-28T05:04:00.356Z,91.3
2022-09-28T05:05:00.497Z,91.4
2022-09-28T05:06:00.696Z,91.4
2022-09-28T05:07:00.790Z,91.5
2022-09-28T05:08:00.936Z,91.5
2022-09-28T05:09:01.087Z,91.5
2022-09-28T05:10:01.231Z,91.6
2022-09-28T05:11:00.410Z,91.7
2022-09-28T05:12:00.529Z,91.8
2022-09-28T05:13:00.682Z,91.7
2022-09-28T05:14:00.839Z,91.8
2022-09-28T05:15:00.994Z,91.7
2022-09-28T05:16:05.185Z,91.7
2022-09-28T05:17:00.408Z,91.6
2022-09-28T05:18:00.412Z,91.7
2022-09-28T05:19:00.572Z,91.7
2022-09-28T05:20:00.737Z,91.8
2022-09-28T05:21:00.883Z,91.9
2022-09-28T05:22:01.034Z,91.9
2022-09-28T05:23:01.166Z,91.9
2022-09-28T05:24:00.307Z,91.8
2022-09-28T05:25:00.453Z,91.7
2022-09-28T05:26:00.606Z,91.7
2022-09-28T05:27:00.773Z,91.7
2022-09-28T05:28:00.898Z,91.7
2022-09-28T05:29:01.037Z,91.5
2022-09-28T05:30:01.194Z,91.4
2022-09-28T05:31:00.344Z,91.3
2022-09-28T05:32:00.544Z,91.3
2022-09-28T05:33:00.663Z,91.2
2022-09-28T05:34:00.799Z,91.2
2022-09-28T05:35:00.948Z,91.1
2022-09-28T05:36:01.805Z,91
2022-09-28T05:37:01.247Z,90.9
2022-09-28T05:38:00.413Z,90.8
2022-09-28T05:39:00.545Z,90.8
2022-09-28T05:40:00.686Z,90.9
2022-09-28T05:41:05.738Z,91.1
2022-09-28T05:42:00.997Z,91.2
2022-09-28T05:43:01.146Z,91.3
2022-09-28T05:44:00.282Z,91.3
2022-09-28T05:45:00.437Z,91.3
2022-09-28T05:46:00.717Z,91.3
2022-09-28T05:47:00.764Z,91.2
2022-09-28T05:48:00.903Z,91.3
2022-09-28T05:49:01.067Z,91.3
2022-09-28T05:50:01.186Z,91.3
2022-09-28T05:51:00.330Z,91.2
2022-09-28T05:52:00.504Z,91.1
2022-09-28T05:53:00.626Z,91.1
2022-09-28T05:54:05.453Z,91.1
2022-09-28T05:55:00.920Z,91.1
2022-09-28T05:56:01.063Z,91.1
2022-09-28T05:57:01.208Z,91
2022-09-28T05:58:00.356Z,90.9
2022-09-28T05:59:00.522Z,90.9
2022-09-28T06:00:00.679Z,90.8
2022-09-28T06:01:00.856Z,90.7
2022-09-28T06:02:00.996Z,90.9
2022-09-28T06:03:03.408Z,90.9
2022-09-28T06:04:01.253Z,90.8
2022-09-28T06:05:00.396Z,90.8
2022-09-28T06:06:00.538Z,90.9
2022-09-28T06:07:00.686Z,90.8
2022-09-28T06:08:00.832Z,90.7
2022-09-28T06:09:01.004Z,90.9
2022-09-28T06:10:01.123Z,90.9
2022-09-28T06:11:00.271Z,91
2022-09-28T06:12:00.416Z,91.1
2022-09-28T06:13:00.586Z,91
2022-09-28T06:14:00.712Z,91
2022-09-28T06:15:00.861Z,91
2022-09-28T06:16:01.015Z,91
2022-09-28T06:17:01.220Z,90.9
2022-09-28T06:18:00.321Z,90.9
2022-09-28T06:19:00.452Z,90.9
2022-09-28T06:20:00.588Z,91
2022-09-28T06:21:00.751Z,91
2022-09-28T06:22:00.906Z,91.1
2022-09-28T06:23:01.062Z,91
2022-09-28T06:24:01.219Z,91
2022-09-28T06:25:00.352Z,91
2022-09-28T06:26:00.493Z,91.2
2022-09-28T06:27:00.653Z,91.3
2022-09-28T06:28:00.815Z,91.4
2022-09-28T06:29:00.951Z,91.5
2022-09-28T06:30:01.092Z,91.6
2022-09-28T06:31:01.301Z,91.6
2022-09-28T06:32:00.405Z,91.7
2022-09-28T06:33:00.577Z,91.9
2022-09-28T06:34:00.673Z,91.9
2022-09-28T06:35:00.824Z,91.9
2022-09-28T06:36:00.974Z,92
2022-09-28T06:37:01.117Z,92.1
2022-09-28T06:38:00.299Z,92.1
2022-09-28T06:39:00.431Z,92.3
2022-09-28T06:40:00.553Z,92.3
2022-09-28T06:41:00.775Z,92.3
2022-09-28T06:42:00.845Z,92.4
2022-09-28T06:43:01.001Z,92.4
2022-09-28T06:44:01.164Z,92.5
2022-09-28T06:45:00.290Z,92.5
2022-09-28T06:46:00.539Z,92.5
2022-09-28T06:47:00.596Z,92.5
2022-09-28T06:48:00.735Z,92.5
2022-09-28T06:49:00.900Z,92.5
2022-09-28T06:50:01.023Z,92.6
2022-09-28T06:51:01.166Z,92.6
2022-09-28T06:52:00.312Z,92.6
2022-09-28T06:53:00.467Z,92.6
2022-09-28T06:54:00.641Z,92.7
2022-09-28T06:55:00.786Z,92.8
2022-09-28T06:56:00.937Z,92.6
2022-09-28T06:57:01.082Z,92.6
2022-09-28T06:58:01.228Z,92.6
2022-09-28T06:59:00.397Z,92.6
2022-09-28T07:00:00.523Z,92.6
2022-09-28T07:01:00.757Z,92.5
2022-09-28T07:02:00.898Z,92.5
2022-09-28T07:03:00.951Z,92.5
2022-09-28T07:04:01.136Z,92.5
2022-09-28T07:05:01.254Z,92.5
2022-09-28T07:06:00.391Z,92.5
2022-09-28T07:07:00.551Z,92.6
2022-09-28T07:08:00.694Z,92.5
2022-09-28T07:09:24.146Z,92.5
2022-09-28T07:10:00.986Z,92.4
2022-09-28T07:11:01.128Z,92.3
2022-09-28T07:12:00.272Z,92.3
2022-09-28T07:13:00.387Z,92.4
2022-09-28T07:14:00.562Z,92.3
2022-09-28T07:15:00.697Z,92.4
2022-09-28T07:16:00.844Z,92.5
2022-09-28T07:17:13.091Z,92.4
2022-09-28T07:18:03.823Z,92.5
2022-09-28T07:19:00.304Z,92.5
2022-09-28T07:20:10.518Z,92.6
2022-09-28T07:21:00.570Z,92.6
2022-09-28T07:22:04.412Z,92.6
2022-09-28T07:23:08.011Z,92.5
2022-09-28T07:24:01.030Z,92.5
2022-09-28T07:25:01.183Z,92.5
2022-09-28T07:26:00.305Z,92.5
2022-09-28T07:27:00.451Z,92.6
2022-09-28T07:28:00.597Z,92.6
2022-09-28T07:29:00.748Z,92.6
2022-09-28T07:30:00.920Z,92.6
2022-09-28T07:31:01.137Z,92.6
2022-09-28T07:32:01.185Z,92.6
2022-09-28T07:33:00.362Z,92.6
2022-09-28T07:34:00.481Z,92.5
2022-09-28T07:35:00.657Z,92.4
2022-09-28T07:36:00.790Z,92.4
2022-09-28T07:37:00.931Z,92.4
2022-09-28T07:38:01.089Z,92.1
2022-09-28T07:39:01.226Z,92.1
2022-09-28T07:40:00.386Z,92.2
2022-09-28T07:41:00.561Z,92.3
2022-09-28T07:42:03.055Z,92.3
2022-09-28T07:43:00.815Z,92.4
2022-09-28T07:44:00.956Z,92.4
2022-09-28T07:45:01.132Z,92.6
2022-09-28T07:47:00.362Z,92.4
2022-09-28T07:48:00.603Z,92.3
2022-09-28T07:49:00.660Z,92.2
2022-09-28T07:50:00.820Z,92.3
2022-09-28T07:51:00.945Z,92.2
2022-09-28T07:52:01.090Z,92
2022-09-28T07:53:01.229Z,91.9
2022-09-28T07:54:00.399Z,92
2022-09-28T07:55:06.010Z,92.1
2022-09-28T07:56:00.669Z,92.1
2022-09-28T07:57:00.833Z,92.2
2022-09-28T07:58:00.979Z,92.1
2022-09-28T07:59:01.148Z,92
2022-09-28T08:00:00.276Z,91.8
2022-09-28T08:01:00.479Z,91.9
2022-09-28T08:02:00.611Z,92
2022-09-28T08:03:00.705Z,91.9
2022-09-28T08:04:00.867Z,91.8
2022-09-28T08:05:01.020Z,91.9
2022-09-28T08:06:01.156Z,92
2022-09-28T08:07:00.305Z,92
2022-09-28T08:08:00.441Z,91.9
2022-09-28T08:09:00.608Z,91.8
2022-09-28T08:10:00.769Z,91.7
2022-09-28T08:11:00.935Z,91.5
2022-09-28T08:12:01.044Z,91.3
2022-09-28T08:13:02.818Z,91.1
2022-09-28T08:14:00.331Z,90.7
2022-09-28T08:15:00.511Z,91
2022-09-28T08:16:00.640Z,90.8
2022-09-28T08:17:00.788Z,91
2022-09-28T08:18:02.847Z,91
2022-09-28T08:19:01.085Z,90.6
2022-09-28T08:20:01.259Z,90.8
2022-09-28T08:21:00.373Z,91
2022-09-28T08:22:00.532Z,91.1
2022-09-28T08:23:00.687Z,91.2
2022-09-28T08:24:00.858Z,91.3
2022-09-28T08:25:01.005Z,91.3
2022-09-28T08:26:01.127Z,91.3
2022-09-28T08:27:00.267Z,91.4
2022-09-28T08:28:00.412Z,91.5
2022-09-28T08:29:00.566Z,91.6
2022-09-28T08:30:00.736Z,91.5
2022-09-28T08:31:00.969Z,91.5
2022-09-28T08:32:01.873Z,91.5
2022-09-28T08:33:01.156Z,91.6
2022-09-28T08:34:00.302Z,91.7
2022-09-28T08:35:00.474Z,91.7
2022-09-28T08:36:00.596Z,91.8
2022-09-28T08:37:00.742Z,91.9
2022-09-28T08:38:00.908Z,91.9
2022-09-28T08:39:01.052Z,91.9
2022-09-28T08:40:01.227Z,91.9
2022-09-28T08:41:00.396Z,92
2022-09-28T08:42:00.499Z,91.9
2022-09-28T08:43:00.648Z,92
2022-09-28T08:44:00.791Z,92
2022-09-28T08:45:00.954Z,92.1
2022-09-28T08:46:01.162Z,92.1
2022-09-28T08:47:01.233Z,92.1
2022-09-28T08:48:00.386Z,92.1
2022-09-28T08:49:23.863Z,92.2
2022-09-28T08:50:00.706Z,92.2
2022-09-28T08:51:00.827Z,92.3
2022-09-28T08:52:00.985Z,92.3
2022-09-28T08:53:01.140Z,92.4
2022-09-28T08:54:00.276Z,92.5
2022-09-28T08:55:00.441Z,92.5
2022-09-28T08:56:00.607Z,92.6
2022-09-28T08:57:00.726Z,92.7
2022-09-28T08:58:00.862Z,92.8
2022-09-28T08:59:01.014Z,92.8
2022-09-28T09:00:01.169Z,92.8
2022-09-28T09:01:00.381Z,92.8
2022-09-28T09:02:00.521Z,92.7
2022-09-28T09:03:00.661Z,92.7
2022-09-28T09:04:00.740Z,92.7
2022-09-28T09:05:00.901Z,92.7
2022-09-28T09:06:01.052Z,92.7
2022-09-28T09:07:01.181Z,92.7
2022-09-28T09:08:00.344Z,92.6
2022-09-28T09:09:00.495Z,92.6
2022-09-28T09:10:00.643Z,92.5
2022-09-28T09:11:00.818Z,92.6
2022-09-28T09:12:01.000Z,92.6
2022-09-28T09:13:01.125Z,92.6
2022-09-28T09:14:01.236Z,92.7
2022-09-28T09:15:00.383Z,92.7
2022-09-28T09:16:00.556Z,92.7
2022-09-28T09:17:01.123Z,92.7
2022-09-28T09:18:00.834Z,92.6
2022-09-28T09:19:01.003Z,92.6
2022-09-28T09:20:01.137Z,92.6
2022-09-28T09:21:00.318Z,92.7
2022-09-28T09:22:00.443Z,92.7
2022-09-28T09:23:00.596Z,92.7
2022-09-28T09:24:00.738Z,92.7
2022-09-28T09:25:00.897Z,92.6
2022-09-28T09:26:01.053Z,92.5
2022-09-28T09:27:01.205Z,92.5
2022-09-28T09:28:00.330Z,92.6
2022-09-28T09:29:00.465Z,92.7
2022-09-28T09:30:00.613Z,92.6
2022-09-28T09:31:00.852Z,92.6
2022-09-28T09:32:00.921Z,92.6
2022-09-28T09:33:01.064Z,92.6
2022-09-28T09:34:01.217Z,92.6
2022-09-28T09:35:00.322Z,92.6
2022-09-28T09:36:00.478Z,92.7
2022-09-28T09:37:00.643Z,92.7
2022-09-28T09:38:00.811Z,92.7
2022-09-28T09:39:00.924Z,92.7
2022-09-28T09:40:01.083Z,92.7
2022-09-28T09:41:01.352Z,92.6
2022-09-28T09:42:00.378Z,92.5
2022-09-28T09:43:00.553Z,92.5
2022-09-28T09:44:00.672Z,92.6
2022-09-28T09:45:00.835Z,92.5
2022-09-28T09:46:01.023Z,92.6
2022-09-28T09:47:01.127Z,92.6
2022-09-28T09:48:00.285Z,92.5
2022-09-28T09:49:00.426Z,92.4
2022-09-28T09:50:04.077Z,92.4
2022-09-28T09:51:00.726Z,92.4
2022-09-28T09:52:00.870Z,92.2
2022-09-28T09:53:01.032Z,92.1
2022-09-28T09:54:01.175Z,92
2022-09-28T09:55:00.323Z,91.9
2022-09-28T09:56:00.468Z,91.9
2022-09-28T09:57:00.629Z,92
2022-09-28T09:58:00.788Z,92.2
2022-09-28T09:59:00.908Z,92.4
2022-09-28T10:00:01.054Z,92.3
2022-09-28T10:01:01.290Z,92.4
2022-09-28T10:02:00.408Z,92.1
2022-09-28T10:03:00.634Z,91.8
2022-09-28T10:04:00.647Z,91.5
2022-09-28T10:05:00.803Z,91.1
2022-09-28T10:06:00.946Z,90.9
2022-09-28T10:07:01.102Z,90.6
2022-09-28T10:08:01.267Z,90.6
2022-09-28T10:09:00.410Z,90.3
2022-09-28T10:10:00.552Z,90.3
2022-09-28T10:11:00.705Z,90.2
2022-09-28T10:12:00.860Z,90.6
2022-09-28T10:13:01.000Z,90.7
2022-09-28T10:14:01.170Z,90.7
2022-09-28T10:15:00.288Z,90.8
2022-09-28T10:16:00.436Z,90.9
2022-09-28T10:17:00.732Z,90.9
2022-09-28T10:18:00.728Z,91
2022-09-28T10:19:00.900Z,91
2022-09-28T10:20:01.125Z,91.3
2022-09-28T10:21:01.181Z,91.2
2022-09-28T10:22:00.317Z,90.7
2022-09-28T10:23:00.489Z,90.3
2022-09-28T10:24:00.606Z,90
2022-09-28T10:25:00.775Z,89.7
2022-09-28T10:26:00.910Z,89.8
2022-09-28T10:27:01.088Z,90.1
2022-09-28T10:28:01.199Z,90.4
2022-09-28T10:29:00.333Z,90.3
2022-09-28T10:30:00.500Z,90.1
2022-09-28T10:31:00.762Z,90.1
2022-09-28T10:32:00.776Z,90.1
2022-09-28T10:33:00.933Z,89.9
2022-09-28T10:34:01.128Z,89.9
2022-09-28T10:35:01.263Z,89.8
2022-09-28T10:36:00.381Z,90.1
2022-09-28T10:37:00.537Z,90
2022-09-28T10:38:00.692Z,89.8
2022-09-28T10:39:00.864Z,89.9
2022-09-28T10:40:00.986Z,89.9
2022-09-28T10:41:01.282Z,89.4
2022-09-28T10:42:00.310Z,89.1
2022-09-28T10:43:00.442Z,89.2
2022-09-28T10:44:00.648Z,89.2
2022-09-28T10:45:00.732Z,89.1
2022-09-28T10:46:00.976Z,89.7
2022-09-28T10:47:01.032Z,89.8
2022-09-28T10:48:01.174Z,89.8
2022-09-28T10:49:00.328Z,89.7
2022-09-28T10:50:00.452Z,89.1
2022-09-28T10:51:00.602Z,88.2
2022-09-28T10:52:00.757Z,88.3
2022-09-28T10:53:00.901Z,88.2
2022-09-28T10:54:01.074Z,88.1
2022-09-28T10:55:01.224Z,88.6
2022-09-28T10:56:00.348Z,88.6
2022-09-28T10:57:00.490Z,89
2022-09-28T10:58:00.623Z,89.2
2022-09-28T10:59:00.789Z,88.3
2022-09-28T11:00:00.893Z,87.9
2022-09-28T11:01:01.092Z,88.3
2022-09-28T11:02:01.279Z,88.9
2022-09-28T11:03:00.420Z,89.1
2022-09-28T11:04:00.475Z,89.2
2022-09-28T11:05:00.634Z,89.4
2022-09-28T11:06:00.771Z,89.4
2022-09-28T11:07:01.015Z,88.8
2022-09-28T11:08:01.065Z,88
2022-09-28T11:09:01.206Z,87.8
2022-09-28T11:10:00.367Z,88
2022-09-28T11:11:00.514Z,87.8
2022-09-28T11:12:00.650Z,86.9
2022-09-28T11:13:00.792Z,86.6
2022-09-28T11:14:00.953Z,86.8
2022-09-28T11:15:01.125Z,86.6
2022-09-28T11:16:01.236Z,86.5
2022-09-28T11:17:00.443Z,86.7
2022-09-28T11:18:00.535Z,87.1
2022-09-28T11:19:00.680Z,87.3
2022-09-28T11:20:00.844Z,87.7
2022-09-28T11:21:01.002Z,87.1
2022-09-28T11:22:01.125Z,87
2022-09-28T11:23:00.275Z,87
2022-09-28T11:24:00.417Z,86.4
2022-09-28T11:25:00.569Z,85.6
2022-09-28T11:26:00.740Z,85.5
2022-09-28T11:27:00.881Z,86.1
2022-09-28T11:28:01.027Z,86
2022-09-28T11:29:01.184Z,86.6
2022-09-28T11:30:00.299Z,86.1
2022-09-28T11:31:00.537Z,86.4
2022-09-28T11:32:00.605Z,86.2
2022-09-28T11:33:00.752Z,85.8
2022-09-28T11:34:00.896Z,85.6
2022-09-28T11:35:01.048Z,85.9
2022-09-28T11:36:01.216Z,86.3
2022-09-28T11:37:01.883Z,86.4
2022-09-28T11:38:00.486Z,86.5
2022-09-28T11:39:00.638Z,86.4
2022-09-28T11:40:00.787Z,85.9
2022-09-28T11:41:01.022Z,86.2
2022-09-28T11:42:01.120Z,86.6
2022-09-28T11:43:01.330Z,86.3
2022-09-28T11:44:00.394Z,86.3
2022-09-28T11:45:00.545Z,86.4
2022-09-28T11:46:00.760Z,86.6
2022-09-28T11:47:00.858Z,86.3
2022-09-28T11:48:00.994Z,86.3
2022-09-28T11:49:01.133Z,86.7
2022-09-28T11:50:00.285Z,86.8
2022-09-28T11:51:00.427Z,87.2
2022-09-28T11:52:00.591Z,87.8
2022-09-28T11:53:00.714Z,87.4
2022-09-28T11:54:00.868Z,87.5
2022-09-28T11:55:01.022Z,87
2022-09-28T11:56:03.303Z,86.9
2022-09-28T11:57:00.337Z,87.2
2022-09-28T11:58:00.444Z,87.6
2022-09-28T11:59:00.619Z,88
2022-09-28T12:00:00.753Z,87.2
2022-09-28T12:01:00.898Z,86.5
2022-09-28T12:02:01.166Z,86.2
2022-09-28T12:03:01.362Z,86.1
2022-09-28T12:04:00.343Z,85.2
2022-09-28T12:05:00.491Z,84.4
2022-09-28T12:06:00.644Z,85.2
2022-09-28T12:07:00.818Z,85.4
2022-09-28T12:08:00.961Z,85.8
2022-09-28T12:09:01.108Z,86.2
2022-09-28T12:10:01.248Z,86.5
2022-09-28T12:11:00.394Z,85.5
2022-09-28T12:12:00.553Z,85.6
2022-09-28T12:13:00.673Z,86
2022-09-28T12:14:00.824Z,85.9
2022-09-28T12:15:00.968Z,86.2
2022-09-28T12:16:27.565Z,86.4
2022-09-28T12:17:06.813Z,86.6
2022-09-28T12:18:00.469Z,86
2022-09-28T12:20:00.705Z,85.7
2022-09-28T12:21:05.018Z,85.6
2022-09-28T12:22:01.015Z,85.3
2022-09-28T12:23:01.183Z,85.4
2022-09-28T12:24:00.318Z,85
2022-09-28T12:25:00.459Z,84.8
2022-09-28T12:26:00.604Z,85.6
2022-09-28T12:27:00.762Z,85.8
2022-09-28T12:28:00.924Z,85
2022-09-28T12:29:01.079Z,85.2
2022-09-28T12:30:01.193Z,86.1
2022-09-28T12:31:00.372Z,85.5
2022-09-28T12:32:00.497Z,85.6
2022-09-28T12:33:00.641Z,85.2
2022-09-28T12:34:00.817Z,83.7
2022-09-28T12:35:00.947Z,84
2022-09-28T12:36:01.093Z,84.9
2022-09-28T12:37:01.241Z,84.1
2022-09-28T12:38:00.372Z,84.1
2022-09-28T12:39:18.179Z,84
2022-09-28T12:40:00.965Z,83.1
2022-09-28T12:41:00.875Z,82.8
2022-09-28T12:42:00.964Z,83.7
2022-09-28T12:43:01.110Z,82.8
2022-09-28T12:44:01.279Z,84.2
2022-09-28T12:45:00.401Z,84
2022-09-28T12:46:11.440Z,83.4
2022-09-28T12:47:00.874Z,83.6
2022-09-28T12:48:00.857Z,83.8
2022-09-28T12:50:37.697Z,83.6
2022-09-28T12:51:00.568Z,83
2022-09-28T12:52:00.421Z,83.4
2022-09-28T12:53:03.011Z,83.6
2022-09-28T12:54:00.753Z,83.6
2022-09-28T12:55:00.958Z,83.7
2022-09-28T12:56:01.040Z,81.6
2022-09-28T12:57:01.182Z,81.4
2022-09-28T12:58:00.326Z,81.1
2022-09-28T12:59:00.497Z,82.3
2022-09-28T13:00:00.683Z,81.5
2022-09-28T13:01:00.761Z,82.3
2022-09-28T13:02:00.940Z,82.2
2022-09-28T13:03:01.161Z,81.4
2022-09-28T13:04:01.229Z,80
2022-09-28T13:05:00.356Z,79.8
2022-09-28T13:06:00.495Z,79.6
2022-09-28T13:07:00.642Z,79.6
2022-09-28T13:08:00.791Z,79.9
2022-09-28T13:09:00.963Z,79.9
2022-09-28T13:10:01.162Z,79.5
2022-09-28T13:11:04.284Z,79
2022-09-28T13:12:00.393Z,78.4
2022-09-28T13:13:00.546Z,78.9
2022-09-28T13:14:00.724Z,79.6
2022-09-28T13:15:00.854Z,79.1
2022-09-28T13:16:01.079Z,79.6
2022-09-28T13:17:01.154Z,79.6
2022-09-28T13:18:00.298Z,79.7
2022-09-28T13:19:00.453Z,79.4
2022-09-28T13:20:00.629Z,79.7
2022-09-28T13:21:00.738Z,82
2022-09-28T13:22:00.875Z,82.1
2022-09-28T13:23:01.055Z,81.8
2022-09-28T13:24:14.822Z,80.5
2022-09-28T13:25:00.327Z,81.9
2022-09-28T13:26:00.486Z,81.4